Time;durP1;ratioP1;P1;durP2;ratioP2;P2;SDS_P1;SDS_P2;PMS_P1;PMS_P2;Temp;Humidity;BMP_temperature;BMP_pressure;BME280_temperature;BME280_humidity;BME280_pressure;Samples;Min_cycle;Max_cycle;Signal;HPM_P1;HPM_P2
2023/08/19 00:01:12;;;;;;;252.60;242.10;;;22.50;99.90;;;;;;5112740;28;20449;-67
2023/08/19 00:03:39;;;;;;;259.03;248.00;;;22.40;99.90;;;;;;5112641;28;20448;-68
2023/08/19 00:06:07;;;;;;;260.30;249.17;;;22.40;99.90;;;;;;5112662;28;20445;-67
2023/08/19 00:08:34;;;;;;;265.77;254.27;;;22.30;99.90;;;;;;5111739;28;20538;-67
2023/08/19 00:11:01;;;;;;;266.23;254.73;;;22.30;99.90;;;;;;5112613;28;21019;-67
2023/08/19 00:13:30;;;;;;;277.03;265.23;;;22.30;99.90;;;;;;5112492;28;20456;-67
2023/08/19 00:15:57;;;;;;;274.93;262.73;;;22.20;99.90;;;;;;5112896;28;20498;-67
2023/08/19 00:18:24;;;;;;;276.43;263.83;;;22.10;99.90;;;;;;5112100;28;20449;-68
2023/08/19 00:20:51;;;;;;;303.23;289.60;;;22.10;99.90;;;;;;5112004;28;20947;-67
2023/08/19 00:23:18;;;;;;;315.00;300.70;;;22.00;99.90;;;;;;5112490;28;20445;-67
2023/08/19 00:25:45;;;;;;;319.77;305.33;;;21.90;99.90;;;;;;5112608;28;20449;-67
2023/08/19 00:28:12;;;;;;;315.87;301.20;;;21.80;99.90;;;;;;5112794;28;20449;-67
2023/08/19 00:30:40;;;;;;;319.30;304.20;;;21.80;99.90;;;;;;5112384;28;20445;-67
2023/08/19 00:33:06;;;;;;;324.93;310.13;;;21.70;99.90;;;;;;5111972;28;20803;-59
2023/08/19 00:35:33;;;;;;;333.43;318.00;;;21.70;99.90;;;;;;5111992;28;20449;-59
2023/08/19 00:38:00;;;;;;;340.53;324.73;;;21.60;99.90;;;;;;5112556;28;20438;-59
2023/08/19 00:40:27;;;;;;;346.57;330.43;;;21.60;99.90;;;;;;5112408;28;20480;-59
2023/08/19 00:42:54;;;;;;;344.70;328.33;;;21.50;99.90;;;;;;5112133;28;20449;-59
2023/08/19 00:45:21;;;;;;;377.13;359.47;;;21.40;99.90;;;;;;5112026;28;20815;-59
2023/08/19 00:47:49;;;;;;;380.97;363.13;;;21.30;99.90;;;;;;5112081;28;20449;-59
2023/08/19 00:50:16;;;;;;;381.40;363.50;;;21.30;99.90;;;;;;5112230;28;20802;-60
2023/08/19 00:52:45;;;;;;;388.97;370.67;;;21.20;99.90;;;;;;5112215;28;20449;-59
2023/08/19 00:55:12;;;;;;;398.60;378.83;;;21.20;99.90;;;;;;5112241;28;20449;-59
2023/08/19 00:57:40;;;;;;;411.17;391.43;;;21.10;99.90;;;;;;5112096;28;20973;-59
2023/08/19 01:00:08;;;;;;;424.67;403.33;;;21.00;99.90;;;;;;5112113;28;21007;-59
2023/08/19 01:02:34;;;;;;;419.70;399.10;;;21.00;99.90;;;;;;5111673;28;20452;-59
2023/08/19 01:05:03;;;;;;;410.53;390.20;;;21.00;99.90;;;;;;5112375;28;20449;-59
2023/08/19 01:07:38;;;;;;;407.27;387.40;;;21.00;99.90;;;;;;5112127;28;20445;-60
2023/08/19 01:10:13;;;;;;;400.77;380.97;;;21.00;99.90;;;;;;5111883;28;20543;-59
2023/08/19 01:12:44;;;;;;;389.43;370.73;;;21.00;99.90;;;;;;5111570;28;20614;-59
2023/08/19 01:15:15;;;;;;;375.13;357.23;;;21.00;99.90;;;;;;5112059;28;20452;-59
2023/08/19 01:17:43;;;;;;;365.07;347.43;;;21.00;99.90;;;;;;5112189;28;20449;-59
2023/08/19 01:20:12;;;;;;;359.50;342.33;;;21.00;99.90;;;;;;5113720;28;20482;-59
2023/08/19 01:22:49;;;;;;;359.60;342.70;;;21.00;99.90;;;;;;5115680;28;20893;-59
2023/08/19 01:25:19;;;;;;;363.60;346.50;;;20.90;99.90;;;;;;5115794;28;20452;-59
2023/08/19 01:27:46;;;;;;;369.67;352.07;;;20.90;99.90;;;;;;5115742;28;20449;-59
2023/08/19 01:30:14;;;;;;;365.97;348.57;;;20.80;99.90;;;;;;5115496;28;20445;-59
2023/08/19 01:32:42;;;;;;;369.60;351.90;;;20.80;99.90;;;;;;5114604;28;20457;-59
2023/08/19 01:35:09;;;;;;;358.63;341.63;;;20.80;99.90;;;;;;5115650;28;20445;-59
2023/08/19 01:37:43;;;;;;;378.63;360.33;;;20.80;99.90;;;;;;5115584;28;20448;-68
2023/08/19 01:40:13;;;;;;;367.40;349.73;;;20.70;99.90;;;;;;5114926;28;20464;-68
2023/08/19 01:42:42;;;;;;;369.37;352.03;;;20.70;99.90;;;;;;5115125;28;20449;-67
2023/08/19 01:45:10;;;;;;;366.53;349.63;;;20.60;99.90;;;;;;5115494;28;20444;-67
2023/08/19 01:47:38;;;;;;;350.27;334.37;;;20.60;99.90;;;;;;5114869;28;20800;-67
2023/08/19 01:50:05;;;;;;;363.57;346.90;;;20.50;99.90;;;;;;5115258;28;20445;-67
2023/08/19 01:52:33;;;;;;;375.40;358.40;;;20.30;99.90;;;;;;5114727;28;20453;-67
2023/08/19 01:55:00;;;;;;;420.50;401.03;;;20.20;99.90;;;;;;5115049;28;20451;-67
2023/08/19 01:57:27;;;;;;;456.97;434.17;;;20.20;99.90;;;;;;5115376;28;20549;-67
2023/08/19 01:59:56;;;;;;;483.87;459.50;;;20.20;99.90;;;;;;5114800;28;20501;-67
2023/08/19 02:02:23;;;;;;;490.40;464.90;;;20.10;99.90;;;;;;5114704;28;20440;-67
2023/08/19 02:04:50;;;;;;;480.53;455.00;;;20.10;99.90;;;;;;5114824;28;20538;-67
2023/08/19 02:07:17;;;;;;;477.10;451.43;;;20.10;99.90;;;;;;5114695;28;20444;-67
2023/08/19 02:09:45;;;;;;;455.83;432.63;;;20.10;99.90;;;;;;5114879;28;20447;-67
2023/08/19 02:12:12;;;;;;;416.60;395.90;;;20.20;99.90;;;;;;5114895;28;20955;-67
2023/08/19 02:14:39;;;;;;;405.47;385.50;;;20.20;99.90;;;;;;5114609;28;20452;-67
2023/08/19 02:17:08;;;;;;;383.17;364.70;;;20.30;99.90;;;;;;5114600;28;20826;-67
2023/08/19 02:19:35;;;;;;;370.10;352.17;;;20.40;99.90;;;;;;5114344;28;20563;-67
2023/08/19 02:22:02;;;;;;;364.07;346.67;;;20.40;99.90;;;;;;5114721;28;20870;-67
2023/08/19 02:24:29;;;;;;;352.93;335.53;;;20.50;99.90;;;;;;5114413;28;20449;-67
2023/08/19 02:26:56;;;;;;;338.70;322.37;;;20.50;99.90;;;;;;5114791;28;20460;-67
2023/08/19 02:29:23;;;;;;;321.97;307.47;;;20.60;99.90;;;;;;5114175;28;20974;-67
2023/08/19 02:31:50;;;;;;;320.90;306.03;;;20.60;99.90;;;;;;5113563;28;20445;-67
2023/08/19 02:34:18;;;;;;;307.63;293.47;;;20.60;99.90;;;;;;5113905;28;20455;-67
2023/08/19 02:36:45;;;;;;;308.13;293.77;;;20.60;99.90;;;;;;5114409;28;20447;-67
2023/08/19 02:39:12;;;;;;;316.33;301.83;;;20.70;99.90;;;;;;5114197;28;20980;-67
2023/08/19 02:41:38;;;;;;;301.10;287.30;;;20.70;99.90;;;;;;5114088;28;20847;-67
2023/08/19 02:44:05;;;;;;;288.13;275.23;;;20.70;99.90;;;;;;5113953;28;20452;-68
2023/08/19 02:46:32;;;;;;;273.70;261.70;;;20.80;99.90;;;;;;5113734;28;20445;-68
2023/08/19 02:48:59;;;;;;;245.53;234.70;;;20.80;99.90;;;;;;5112643;28;20448;-68
2023/08/19 02:51:27;;;;;;;218.40;209.20;;;20.80;99.90;;;;;;5114115;28;20768;-68
2023/08/19 02:53:54;;;;;;;206.60;198.37;;;20.90;99.90;;;;;;5113982;28;20449;-68
2023/08/19 02:56:21;;;;;;;186.83;179.33;;;21.00;99.90;;;;;;5114094;28;20448;-68
2023/08/19 02:58:47;;;;;;;179.23;172.03;;;21.10;99.90;;;;;;5113976;28;20459;-68
2023/08/19 03:01:14;;;;;;;158.77;151.87;;;21.10;99.90;;;;;;5113488;28;20465;-68
2023/08/19 03:03:41;;;;;;;129.10;123.90;;;21.10;99.90;;;;;;5113609;28;20815;-68
2023/08/19 03:06:08;;;;;;;128.93;123.53;;;21.20;99.90;;;;;;5114011;28;20445;-68
2023/08/19 03:08:36;;;;;;;146.37;140.77;;;21.20;99.90;;;;;;5113526;28;20451;-67
2023/08/19 03:11:03;;;;;;;141.00;135.27;;;21.20;99.90;;;;;;5113529;28;20807;-67
2023/08/19 03:13:30;;;;;;;181.97;174.70;;;21.20;99.90;;;;;;5097234;28;20449;-67
2023/08/19 03:16:00;;;;;;;206.50;198.57;;;21.10;99.90;;;;;;5113242;28;20498;-67
2023/08/19 03:18:27;;;;;;;220.97;211.63;;;21.10;99.90;;;;;;5113739;28;20797;-67
2023/08/19 03:20:57;;;;;;;197.43;189.90;;;21.00;99.90;;;;;;5113121;28;20465;-67
2023/08/19 03:23:25;;;;;;;187.33;179.63;;;21.00;99.90;;;;;;5113295;28;20449;-67
2023/08/19 03:25:54;;;;;;;214.77;206.27;;;21.00;99.90;;;;;;5113343;28;20449;-67
2023/08/19 03:28:21;;;;;;;208.27;200.10;;;21.00;99.90;;;;;;5113174;28;20449;-67
2023/08/19 03:30:48;;;;;;;180.43;173.13;;;21.00;99.90;;;;;;5112428;28;20450;-68
2023/08/19 03:33:14;;;;;;;168.07;161.30;;;21.00;99.90;;;;;;5113263;28;20452;-68
2023/08/19 03:35:41;;;;;;;160.33;154.07;;;21.00;99.90;;;;;;5113453;28;20453;-67
2023/08/19 03:38:08;;;;;;;149.67;144.07;;;21.00;99.90;;;;;;5112979;28;20869;-68
2023/08/19 03:40:35;;;;;;;148.40;142.70;;;21.00;99.90;;;;;;5112923;28;20469;-67
2023/08/19 03:43:04;;;;;;;150.17;144.57;;;21.00;99.90;;;;;;5112300;28;20511;-67
2023/08/19 03:45:34;;;;;;;153.70;148.00;;;21.00;99.90;;;;;;5113508;28;20451;-67
2023/08/19 03:48:00;;;;;;;159.97;153.67;;;21.00;99.90;;;;;;5112876;28;20472;-68
2023/08/19 03:50:27;;;;;;;161.17;154.87;;;21.00;99.90;;;;;;5112524;28;20441;-67
2023/08/19 03:52:54;;;;;;;188.27;180.67;;;20.90;99.90;;;;;;5112749;28;20449;-67
2023/08/19 03:55:21;;;;;;;224.73;215.77;;;20.90;99.90;;;;;;5112874;28;20530;-67
2023/08/19 03:57:48;;;;;;;238.97;229.47;;;20.90;99.90;;;;;;5112700;28;20444;-67
2023/08/19 04:00:16;;;;;;;258.07;247.47;;;20.80;99.90;;;;;;5112615;28;20473;-67
2023/08/19 04:02:43;;;;;;;267.70;256.30;;;20.80;99.90;;;;;;5099222;28;20484;-67
2023/08/19 04:05:12;;;;;;;280.87;269.17;;;20.70;99.90;;;;;;5112707;28;20445;-67
2023/08/19 04:07:39;;;;;;;298.63;286.00;;;20.60;99.90;;;;;;5112853;28;20445;-67
2023/08/19 04:10:07;;;;;;;300.90;287.80;;;20.50;99.90;;;;;;5112351;28;20441;-67
2023/08/19 04:12:35;;;;;;;309.13;295.27;;;20.50;99.90;;;;;;5112750;28;20449;-67
2023/08/19 04:15:01;;;;;;;318.60;304.57;;;20.50;99.90;;;;;;5112520;28;20453;-68
2023/08/19 04:17:30;;;;;;;316.73;302.40;;;20.40;99.90;;;;;;5112584;28;20445;-67
2023/08/19 04:19:56;;;;;;;324.00;309.43;;;20.30;99.90;;;;;;5112536;28;20795;-67
2023/08/19 04:22:24;;;;;;;334.43;319.03;;;20.30;99.90;;;;;;5112237;28;20445;-68
2023/08/19 04:24:51;;;;;;;334.63;319.40;;;20.20;99.90;;;;;;5112108;28;20485;-68
2023/08/19 04:27:18;;;;;;;344.97;329.20;;;20.20;99.90;;;;;;5112503;28;20449;-68
2023/08/19 04:29:45;;;;;;;339.67;324.07;;;20.20;99.90;;;;;;5112092;28;20452;-68
2023/08/19 04:32:13;;;;;;;343.70;327.80;;;20.20;99.90;;;;;;5112507;28;20455;-67
2023/08/19 04:34:41;;;;;;;329.63;314.83;;;20.20;99.90;;;;;;5112292;28;20477;-68
2023/08/19 04:37:08;;;;;;;328.00;312.63;;;20.30;99.90;;;;;;5112073;28;20445;-68
2023/08/19 04:39:36;;;;;;;320.00;305.50;;;20.30;99.90;;;;;;5112376;28;20453;-68
2023/08/19 04:42:03;;;;;;;319.83;305.53;;;20.40;99.90;;;;;;5112323;28;20481;-68
2023/08/19 04:44:31;;;;;;;306.17;292.57;;;20.40;99.90;;;;;;5111914;28;20453;-68
2023/08/19 04:46:57;;;;;;;303.97;290.60;;;20.40;99.90;;;;;;5112490;28;20449;-68
2023/08/19 04:49:24;;;;;;;297.80;284.50;;;20.50;99.90;;;;;;5111894;28;20452;-68
2023/08/19 04:51:52;;;;;;;299.27;286.33;;;20.50;99.90;;;;;;5111959;28;20460;-68
2023/08/19 04:54:19;;;;;;;295.60;282.20;;;20.60;99.90;;;;;;5100494;28;20930;-68
2023/08/19 04:56:46;;;;;;;290.60;278.27;;;20.60;99.90;;;;;;5113448;28;20445;-68
2023/08/19 04:59:13;;;;;;;288.63;276.27;;;20.70;99.90;;;;;;5116551;28;20830;-68
2023/08/19 05:01:40;;;;;;;263.47;252.20;;;20.80;99.90;;;;;;5115849;28;20469;-67
2023/08/19 05:04:07;;;;;;;251.70;240.80;;;20.80;99.90;;;;;;5116090;28;20445;-68
2023/08/19 05:06:34;;;;;;;243.57;232.90;;;20.90;99.90;;;;;;5099808;28;20936;-68
2023/08/19 05:09:02;;;;;;;207.87;199.57;;;21.10;99.90;;;;;;5116279;28;20483;-68
2023/08/19 05:11:29;;;;;;;190.37;182.47;;;21.20;99.90;;;;;;5116093;28;20445;-63
2023/08/19 05:13:56;;;;;;;154.57;148.27;;;21.30;99.90;;;;;;5115801;28;20468;-63
2023/08/19 05:16:23;;;;;;;106.10;101.70;;;21.40;99.90;;;;;;5116035;28;20451;-63
2023/08/19 05:19:03;;;;;;;68.27;65.37;;;21.50;99.90;;;;;;5115516;28;20445;-63
2023/08/19 05:21:29;;;;;;;46.27;43.67;;;21.60;99.90;;;;;;5115211;28;20476;-63
2023/08/19 05:23:56;;;;;;;32.10;30.30;;;21.80;99.90;;;;;;5115216;28;20449;-63
2023/08/19 05:26:25;;;;;;;27.20;25.53;;;21.90;99.90;;;;;;5115578;28;20547;-63
2023/08/19 05:28:51;;;;;;;25.23;23.70;;;21.90;99.90;;;;;;5115848;28;20456;-63
2023/08/19 05:31:18;;;;;;;19.97;18.53;;;22.00;99.90;;;;;;5115704;28;20452;-63
2023/08/19 05:33:45;;;;;;;19.53;17.93;;;22.00;99.90;;;;;;5115207;28;20540;-63
2023/08/19 05:36:12;;;;;;;17.90;16.40;;;22.10;99.90;;;;;;5115535;28;20441;-63
2023/08/19 05:38:39;;;;;;;16.53;15.23;;;22.10;99.90;;;;;;5115630;28;20445;-63
2023/08/19 05:41:05;;;;;;;17.57;15.97;;;22.20;99.90;;;;;;5114502;28;20471;-63
2023/08/19 05:43:33;;;;;;;14.50;13.10;;;22.20;99.90;;;;;;5115079;28;20979;-60
2023/08/19 05:46:04;;;;;;;15.00;13.67;;;22.30;99.90;;;;;;5115069;28;20449;-60
2023/08/19 05:48:31;;;;;;;13.80;12.67;;;22.40;99.90;;;;;;5115489;28;20797;-60
2023/08/19 05:50:58;;;;;;;14.43;13.10;;;22.50;99.90;;;;;;5115040;28;20969;-60
2023/08/19 05:53:25;;;;;;;17.50;10.47;;;22.60;99.90;;;;;;5114993;28;20453;-60
2023/08/19 05:55:52;;;;;;;11.83;9.10;;;22.70;99.90;;;;;;5115345;28;20451;-60
2023/08/19 05:58:19;;;;;;;8.93;8.00;;;22.70;99.90;;;;;;5114441;28;20449;-60
2023/08/19 06:00:47;;;;;;;11.23;7.90;;;22.80;99.90;;;;;;5115063;28;20483;-60
2023/08/19 06:03:15;;;;;;;10.37;7.97;;;22.80;99.90;;;;;;5115149;28;20451;-60
2023/08/19 06:05:42;;;;;;;12.23;6.93;;;22.90;99.90;;;;;;5114194;28;20449;-60
2023/08/19 06:08:09;;;;;;;12.17;6.27;;;23.00;99.90;;;;;;5114419;28;20959;-61
2023/08/19 06:10:36;;;;;;;9.90;6.93;;;23.10;99.90;;;;;;5114998;28;20812;-61
2023/08/19 06:13:03;;;;;;;11.63;7.37;;;23.20;99.90;;;;;;5114751;28;20445;-60
2023/08/19 06:15:29;;;;;;;9.83;6.83;;;23.20;99.90;;;;;;5115022;28;20445;-59
2023/08/19 06:17:57;;;;;;;9.27;7.07;;;23.30;99.90;;;;;;5115143;28;20455;-59
2023/08/19 06:20:24;;;;;;;8.57;6.00;;;23.40;99.90;;;;;;5114924;28;20445;-59
2023/08/19 06:22:51;;;;;;;9.00;6.23;;;23.50;99.90;;;;;;5114771;28;20449;-59
2023/08/19 06:25:18;;;;;;;8.93;6.20;;;23.50;99.90;;;;;;5114889;28;20445;-60
2023/08/19 06:27:45;;;;;;;10.67;7.40;;;23.60;99.90;;;;;;5112130;28;20479;-61
2023/08/19 06:30:13;;;;;;;14.07;6.67;;;23.60;99.90;;;;;;5113423;28;20540;-61
2023/08/19 06:32:40;;;;;;;9.40;6.10;;;23.70;99.90;;;;;;5113991;28;20875;-61
2023/08/19 06:35:11;;;;;;;7.80;6.20;;;23.60;99.90;;;;;;5114189;28;20557;-61
2023/08/19 06:37:42;;;;;;;11.73;6.23;;;23.70;99.90;;;;;;5115232;27;20494;-61
2023/08/19 06:40:13;;;;;;;12.60;7.00;;;23.80;99.90;;;;;;5114348;28;20449;-61
2023/08/19 06:42:42;;;;;;;10.80;6.57;;;23.90;99.90;;;;;;5114151;28;20487;-61
2023/08/19 06:45:10;;;;;;;12.07;5.73;;;24.00;99.90;;;;;;5114664;28;20447;-61
2023/08/19 06:47:39;;;;;;;8.13;5.00;;;24.00;99.90;;;;;;5113995;28;20537;-60
2023/08/19 06:50:07;;;;;;;10.20;5.73;;;24.20;99.90;;;;;;5114349;28;21136;-61
2023/08/19 06:52:36;;;;;;;20.47;7.37;;;24.40;99.20;;;;;;5114103;28;20455;-60
2023/08/19 06:55:03;;;;;;;11.67;5.43;;;24.50;97.00;;;;;;5114277;28;20950;-61
2023/08/19 06:57:36;;;;;;;10.77;5.60;;;24.50;97.00;;;;;;5114253;28;20535;-60
2023/08/19 07:00:08;;;;;;;7.50;4.60;;;24.60;97.00;;;;;;5114007;28;20471;-60
2023/08/19 07:02:37;;;;;;;9.93;5.00;;;24.80;97.10;;;;;;5112436;28;20487;-61
2023/08/19 07:05:12;;;;;;;10.93;5.33;;;24.80;97.10;;;;;;5114114;28;20451;-60
2023/08/19 07:07:46;;;;;;;15.27;6.37;;;24.90;97.10;;;;;;5113424;28;20459;-61
2023/08/19 07:10:15;;;;;;;10.43;5.43;;;24.90;97.10;;;;;;5113467;28;20447;-61
2023/08/19 07:12:42;;;;;;;10.80;5.37;;;24.90;97.10;;;;;;5113424;28;20480;-60
2023/08/19 07:15:12;;;;;;;8.77;4.60;;;24.90;97.10;;;;;;5113522;28;20519;-61
2023/08/19 07:17:42;;;;;;;9.13;5.10;;;24.90;97.00;;;;;;5113021;28;20451;-61
2023/08/19 07:20:12;;;;;;;11.70;5.43;;;25.00;97.10;;;;;;5112755;28;20455;-61
2023/08/19 07:22:43;;;;;;;9.10;5.27;;;25.10;95.30;;;;;;5112976;28;20487;-61
2023/08/19 07:25:10;;;;;;;11.20;5.33;;;25.20;94.70;;;;;;5112725;28;20446;-61
2023/08/19 07:27:38;;;;;;;9.27;5.20;;;25.30;93.80;;;;;;5112962;28;20532;-65
2023/08/19 07:30:06;;;;;;;9.27;4.60;;;25.50;93.90;;;;;;5112718;28;20449;-65
2023/08/19 07:32:36;;;;;;;8.03;4.40;;;25.60;92.80;;;;;;5112443;28;20449;-64
2023/08/19 07:35:03;;;;;;;8.20;4.30;;;25.80;91.50;;;;;;5112924;28;20811;-64
2023/08/19 07:37:30;;;;;;;8.40;4.70;;;25.90;90.50;;;;;;5113321;28;20884;-64
2023/08/19 07:39:59;;;;;;;10.40;5.27;;;26.10;90.60;;;;;;5112565;28;20494;-64
2023/08/19 07:42:27;;;;;;;9.03;5.10;;;26.20;79.40;;;;;;5111519;28;20983;-64
2023/08/19 07:44:54;;;;;;;8.37;4.87;;;26.40;75.70;;;;;;5112308;28;20532;-64
2023/08/19 07:47:20;;;;;;;10.60;4.70;;;26.30;75.50;;;;;;5113024;28;20451;-64
2023/08/19 07:49:47;;;;;;;17.27;6.07;;;26.30;75.60;;;;;;5112507;28;20453;-64
2023/08/19 07:52:14;;;;;;;8.97;5.17;;;26.40;86.80;;;;;;5112639;28;20460;-64
2023/08/19 07:54:41;;;;;;;7.83;4.43;;;26.40;86.40;;;;;;5112565;28;20476;-64
2023/08/19 07:57:11;;;;;;;8.13;3.97;;;26.60;85.50;;;;;;5112485;28;20529;-63
2023/08/19 07:59:38;;;;;;;10.77;5.07;;;26.60;83.90;;;;;;5112549;28;20444;-63
2023/08/19 08:02:05;;;;;;;10.57;5.80;;;26.60;83.90;;;;;;5112421;28;20838;-64
2023/08/19 08:04:32;;;;;;;10.40;4.70;;;26.70;83.90;;;;;;5110315;28;20948;-63
2023/08/19 08:06:59;;;;;;;9.60;4.53;;;26.70;83.90;;;;;;5111947;28;20445;-64
2023/08/19 08:09:25;;;;;;;12.80;4.78;;;26.80;84.00;;;;;;5111903;28;20454;-64
2023/08/19 08:11:52;;;;;;;9.33;5.27;;;26.90;84.10;;;;;;5112498;28;20563;-63
2023/08/19 08:14:20;;;;;;;12.80;5.50;;;27.00;84.10;;;;;;5112010;28;20509;-63
2023/08/19 08:16:47;;;;;;;14.23;5.23;;;27.00;84.10;;;;;;5112098;28;20449;-64
2023/08/19 08:19:14;;;;;;;9.63;4.97;;;27.30;84.20;;;;;;5112349;28;20449;-64
2023/08/19 08:21:41;;;;;;;9.60;4.30;;;27.50;79.30;;;;;;5112221;28;20483;-64
2023/08/19 08:24:09;;;;;;;13.43;5.20;;;27.60;76.50;;;;;;5112304;28;20812;-64
2023/08/19 08:26:36;;;;;;;11.80;4.80;;;27.70;76.60;;;;;;5111727;28;20449;-63
2023/08/19 08:29:03;;;;;;;10.10;4.50;;;27.90;76.70;;;;;;5111674;28;20787;-64
2023/08/19 08:31:31;;;;;;;8.50;4.50;;;28.00;65.50;;;;;;5111934;28;20446;-64
2023/08/19 08:33:58;;;;;;;9.70;4.63;;;28.20;65.10;;;;;;5111964;28;20960;-64
2023/08/19 08:36:25;;;;;;;9.40;5.00;;;28.50;60.40;;;;;;5112268;28;20537;-64
2023/08/19 08:38:52;;;;;;;11.70;4.83;;;28.60;60.40;;;;;;5112536;28;20818;-64
2023/08/19 08:41:19;;;;;;;14.30;5.63;;;28.70;60.50;;;;;;5112444;28;20458;-64
2023/08/19 08:43:48;;;;;;;10.93;4.90;;;28.80;60.60;;;;;;5111836;28;20537;-63
2023/08/19 08:46:17;;;;;;;10.47;4.83;;;29.00;60.70;;;;;;5112510;28;20576;-63
2023/08/19 08:48:47;;;;;;;12.23;4.67;;;29.30;60.90;;;;;;5112391;28;20447;-63
2023/08/19 08:51:15;;;;;;;12.33;5.33;;;29.40;61.00;;;;;;5112116;28;20542;-63
2023/08/19 08:53:42;;;;;;;9.90;4.90;;;29.60;61.00;;;;;;5112385;28;20444;-64
2023/08/19 08:56:09;;;;;;;9.43;4.83;;;29.60;52.40;;;;;;5112493;28;20445;-64
2023/08/19 08:58:36;;;;;;;10.43;4.90;;;29.90;52.60;;;;;;5111960;28;20480;-67
2023/08/19 09:01:03;;;;;;;9.43;5.20;;;30.10;52.70;;;;;;5112607;28;20423;-66
2023/08/19 09:03:33;;;;;;;11.20;4.97;;;30.60;50.50;;;;;;5112127;28;20525;-66
2023/08/19 09:06:11;;;;;;;7.77;4.13;;;31.40;50.20;;;;;;5112593;28;20948;-65
2023/08/19 09:08:42;;;;;;;11.40;5.43;;;31.90;44.90;;;;;;5112234;28;20939;-65
2023/08/19 09:11:14;;;;;;;10.20;4.87;;;31.80;38.20;;;;;;5112202;28;20452;-65
2023/08/19 09:13:42;;;;;;;10.67;4.53;;;31.90;38.60;;;;;;5112046;28;20455;-64
2023/08/19 09:16:11;;;;;;;10.53;4.80;;;32.00;35.70;;;;;;5112253;28;20419;-64
2023/08/19 09:18:38;;;;;;;12.57;5.43;;;32.10;40.30;;;;;;5112224;28;20445;-64
2023/08/19 09:21:07;;;;;;;12.80;5.20;;;32.20;35.80;;;;;;5111992;28;20465;-65
2023/08/19 09:23:33;;;;;;;13.20;6.00;;;32.50;36.10;;;;;;5111632;28;20468;-65
2023/08/19 09:26:01;;;;;;;19.93;6.67;;;32.30;35.90;;;;;;5112400;28;20798;-65
2023/08/19 09:28:28;;;;;;;19.63;5.63;;;32.00;32.80;;;;;;5112051;28;20445;-65
2023/08/19 09:30:55;;;;;;;11.30;4.53;;;32.10;35.70;;;;;;5112211;28;20441;-64
2023/08/19 09:33:22;;;;;;;9.43;4.90;;;32.20;35.70;;;;;;5111911;28;20415;-64
2023/08/19 09:35:57;;;;;;;9.77;5.30;;;32.60;30.30;;;;;;5111654;28;20451;-64
2023/08/19 09:38:25;;;;;;;11.80;5.40;;;32.70;31.80;;;;;;5112296;28;20448;-64
2023/08/19 09:41:00;;;;;;;9.53;4.50;;;32.60;27.50;;;;;;5113306;28;20456;-65
2023/08/19 09:43:27;;;;;;;14.03;5.07;;;32.30;27.30;;;;;;5115304;28;20559;-65
2023/08/19 09:45:57;;;;;;;9.33;4.90;;;32.60;27.50;;;;;;5115805;28;20456;-65
2023/08/19 09:48:24;;;;;;;20.83;4.77;;;32.50;27.40;;;;;;5115916;28;20449;-65
2023/08/19 09:50:51;;;;;;;10.37;4.73;;;32.80;27.60;;;;;;5115449;28;21090;-65
2023/08/19 09:53:19;;;;;;;22.47;5.87;;;33.20;27.20;;;;;;5115188;28;20416;-63
2023/08/19 09:55:48;;;;;;;11.77;5.80;;;33.40;27.80;;;;;;5115707;28;20821;-64
2023/08/19 09:58:15;;;;;;;10.37;5.43;;;33.40;20.40;;;;;;5115502;28;20455;-64
2023/08/19 10:00:42;;;;;;;13.45;6.00;;;33.30;20.40;;;;;;5114779;28;20447;-65
2023/08/19 10:03:09;;;;;;;9.70;5.10;;;33.60;20.60;;;;;;5114770;28;20317;-65
2023/08/19 10:05:40;;;;;;;9.23;5.30;;;34.70;20.90;;;;;;5115494;28;20428;-65
2023/08/19 10:08:11;;;;;;;10.90;5.97;;;34.90;16.30;;;;;;5115496;28;20449;-66
2023/08/19 10:10:40;;;;;;;8.97;5.10;;;34.90;13.60;;;;;;5115202;28;20456;-66
2023/08/19 10:13:09;;;;;;;10.80;5.90;;;34.60;13.10;;;;;;5114864;28;20445;-66
2023/08/19 10:15:38;;;;;;;9.90;4.10;;;35.40;10.00;;;;;;5114879;28;20985;-66
2023/08/19 10:18:10;;;;;;;6.83;3.80;;;35.20;5.90;;;;;;5115277;28;20427;-66
2023/08/19 10:20:40;;;;;;;9.30;5.90;;;36.30;6.50;;;;;;5115088;28;20518;-65
2023/08/19 10:23:09;;;;;;;12.03;6.17;;;36.90;1.20;;;;;;5114878;28;20860;-64
2023/08/19 10:25:37;;;;;;;8.63;5.33;;;36.20;1.00;;;;;;5114825;28;20455;-64
2023/08/19 10:28:12;;;;;;;10.50;5.73;;;35.70;1.00;;;;;;5115024;28;20821;-65
2023/08/19 10:30:39;;;;;;;15.30;5.27;;;35.70;3.80;;;;;;5104629;28;20536;-64
2023/08/19 10:33:29;;;;;;;12.70;5.70;;;34.90;1.00;;;;;;5110975;28;20424;-64
2023/08/19 10:36:03;;;;;;;8.20;4.83;;;35.10;5.80;;;;;;5114405;28;20452;-64
2023/08/19 10:38:44;;;;;;;9.07;4.73;;;34.40;5.40;;;;;;5113001;28;20455;-64
2023/08/19 10:41:19;;;;;;;10.27;5.40;;;34.00;5.20;;;;;;5113880;28;20452;-64
2023/08/19 10:43:56;;;;;;;14.13;6.00;;;33.90;9.20;;;;;;5114066;28;20451;-64
2023/08/19 10:46:28;;;;;;;11.33;5.53;;;33.70;10.40;;;;;;5113593;28;20452;-64
2023/08/19 10:48:55;;;;;;;11.07;5.63;;;33.70;10.60;;;;;;5113570;28;20745;-64
2023/08/19 10:51:46;;;;;;;10.97;6.57;;;34.10;13.20;;;;;;5113046;28;20456;-63
2023/08/19 10:54:13;;;;;;;18.00;6.73;;;34.70;5.60;;;;;;5113201;28;20427;-63
2023/08/19 10:56:45;;;;;;;9.30;6.10;;;34.00;5.20;;;;;;5113234;28;20423;-63
2023/08/19 10:59:14;;;;;;;10.13;6.20;;;33.00;12.50;;;;;;5113020;28;20856;-63
2023/08/19 11:01:41;;;;;;;16.40;7.00;;;32.70;12.40;;;;;;5114401;28;20449;-63
2023/08/19 11:04:09;;;;;;;15.13;6.57;;;32.60;12.30;;;;;;5114049;28;20455;-63
2023/08/19 11:06:35;;;;;;;9.50;6.00;;;32.50;12.20;;;;;;5114327;28;20451;-62
2023/08/19 11:09:02;;;;;;;14.37;6.33;;;32.10;12.00;;;;;;5113995;28;20449;-62
2023/08/19 11:11:31;;;;;;;10.17;6.10;;;32.00;14.20;;;;;;5113931;28;20449;-62
2023/08/19 11:13:59;;;;;;;14.70;7.50;;;32.20;13.70;;;;;;5113689;28;20445;-63
2023/08/19 11:16:27;;;;;;;9.23;6.40;;;32.10;12.40;;;;;;5113675;28;20954;-62
2023/08/19 11:18:56;;;;;;;12.13;7.10;;;31.90;15.90;;;;;;5113622;28;20498;-63
2023/08/19 11:21:25;;;;;;;13.77;7.03;;;31.60;18.50;;;;;;5113741;28;20489;-63
2023/08/19 11:23:52;;;;;;;13.10;6.80;;;31.60;19.40;;;;;;5113714;28;20530;-63
2023/08/19 11:26:19;;;;;;;11.20;7.73;;;31.90;19.60;;;;;;5113474;28;20810;-63
2023/08/19 11:28:49;;;;;;;11.70;8.00;;;32.00;19.60;;;;;;5113906;28;20458;-63
2023/08/19 11:31:15;;;;;;;13.40;8.27;;;31.80;19.60;;;;;;5113898;28;20457;-63
2023/08/19 11:33:44;;;;;;;13.23;8.00;;;31.50;19.40;;;;;;5113260;28;20936;-63
2023/08/19 11:36:11;;;;;;;11.10;8.33;;;31.40;19.30;;;;;;5113671;28;20544;-63
2023/08/19 11:38:38;;;;;;;15.20;8.70;;;31.10;21.10;;;;;;5113432;28;20450;-63
2023/08/19 11:41:05;;;;;;;11.57;7.97;;;31.00;23.20;;;;;;5113161;28;20535;-63
2023/08/19 11:43:44;;;;;;;13.40;8.57;;;30.80;26.50;;;;;;5113159;28;20563;-63
2023/08/19 11:46:11;;;;;;;13.73;8.33;;;30.40;26.30;;;;;;5113563;28;20451;-63
2023/08/19 11:48:39;;;;;;;15.60;7.83;;;30.10;26.10;;;;;;5113363;28;20452;-63
2023/08/19 11:51:11;;;;;;;12.80;8.93;;;30.00;28.50;;;;;;5113211;28;20510;-64
2023/08/19 11:53:39;;;;;;;14.70;9.07;;;29.80;34.10;;;;;;5112845;28;21024;-62
2023/08/19 11:56:07;;;;;;;12.73;9.40;;;29.50;34.80;;;;;;5113369;28;20452;-63
2023/08/19 11:58:42;;;;;;;15.53;8.90;;;29.40;33.80;;;;;;5113183;28;20540;-63
2023/08/19 12:01:09;;;;;;;13.43;8.53;;;29.40;36.10;;;;;;5113098;28;20444;-62
2023/08/19 12:03:36;;;;;;;19.43;8.20;;;29.20;37.40;;;;;;5112695;28;20477;-62
2023/08/19 12:06:03;;;;;;;20.50;9.50;;;29.10;42.70;;;;;;5112299;28;20456;-62
2023/08/19 12:08:33;;;;;;;15.30;9.80;;;29.00;42.80;;;;;;5113116;28;20452;-61
2023/08/19 12:11:00;;;;;;;17.53;10.47;;;29.00;42.80;;;;;;5113132;28;20445;-62
2023/08/19 12:13:28;;;;;;;16.67;9.53;;;29.20;42.90;;;;;;5112905;28;20444;-62
2023/08/19 12:15:55;;;;;;;25.13;10.17;;;29.40;43.10;;;;;;5112665;28;20502;-62
2023/08/19 12:18:23;;;;;;;17.63;10.10;;;29.00;42.80;;;;;;5112654;28;20458;-62
2023/08/19 12:20:51;;;;;;;21.83;11.80;;;29.10;42.90;;;;;;5112507;28;20449;-63
2023/08/19 12:23:18;;;;;;;14.47;10.40;;;29.20;42.90;;;;;;5112706;28;20479;-63
2023/08/19 12:25:54;;;;;;;16.43;10.27;;;29.60;43.20;;;;;;5112416;28;20484;-61
2023/08/19 12:28:22;;;;;;;15.17;9.10;;;29.90;41.30;;;;;;5106930;28;20915;-63
2023/08/19 12:30:50;;;;;;;18.60;9.20;;;30.20;34.40;;;;;;5112066;28;20555;-63